Pleasant Home, Alabama
Current Conditions -  °F | °C
As of 8:56 AM on Wednesday 26 Nov 2014 (Local Time) from K79J Reporting Station
Clear Clear  
Wind Chill: 51°   Ceiling: Unl
Heat Index: 51°   Visibility: 10mi
Dew Point: 29°   Wind: 9mph
Humidity: 43%   Direction: 360°N
Pressure: 30.22"   Gusts: NA
Location:  31.1836°N, 86.5372°W
Report Text: K79J 261456Z AUTO 36008KT 10SM CLR 11/M02 A3022 RMK AO2 SLP231 T01061017 51022
Loading
Personal Weather Stations






























Interactive Weather Map New forecast layout! Learn more

10-Day Weather Forecast

Advertisements
Track Severe Weather on mobile